createdAt,value
2017-09-25T00:02:08.821Z,8.70
2017-09-25T00:04:37.062Z,8.60
2017-09-25T00:07:05.285Z,8.60
2017-09-25T00:09:33.559Z,8.50
2017-09-25T00:12:01.785Z,8.40
2017-09-25T00:14:30.798Z,8.30
2017-09-25T00:16:59.048Z,8.30
2017-09-25T00:19:27.277Z,8.40
2017-09-25T00:21:56.277Z,8.30
2017-09-25T00:24:24.533Z,8.20
2017-09-25T00:26:53.233Z,8.20
2017-09-25T00:29:21.577Z,8.10
2017-09-25T00:31:50.078Z,8.10
2017-09-25T00:34:18.301Z,8.20
2017-09-25T00:36:46.533Z,8.10
2017-09-25T00:39:15.553Z,8.00
2017-09-25T00:41:43.786Z,7.90
2017-09-25T00:44:12.010Z,7.90
2017-09-25T00:46:40.265Z,7.90
2017-09-25T00:49:08.485Z,8.00
2017-09-25T00:51:36.718Z,8.20
2017-09-25T00:54:05.734Z,8.10
2017-09-25T00:56:33.965Z,8.00
2017-09-25T00:59:02.189Z,8.00
2017-09-25T01:01:42.294Z,7.90
2017-09-25T01:04:22.420Z,7.80
2017-09-25T01:06:50.677Z,7.90
2017-09-25T01:09:18.907Z,8.00
2017-09-25T01:11:47.898Z,8.10
2017-09-25T01:14:16.141Z,8.10
2017-09-25T01:16:45.138Z,8.10
2017-09-25T01:19:13.357Z,8.00
2017-09-25T01:21:41.614Z,7.90
2017-09-25T01:24:09.854Z,7.90
2017-09-25T01:26:38.077Z,7.80
2017-09-25T01:29:06.333Z,7.80
2017-09-25T01:31:34.569Z,7.70
2017-09-25T01:34:02.797Z,7.60
2017-09-25T01:36:31.194Z,7.50
2017-09-25T01:38:59.422Z,7.50
2017-09-25T01:41:27.645Z,7.70
2017-09-25T01:43:55.915Z,7.80
2017-09-25T01:46:24.908Z,7.80
2017-09-25T01:48:54.137Z,7.60
2017-09-25T01:51:22.389Z,7.50
2017-09-25T01:53:50.613Z,7.50
2017-09-25T01:56:18.845Z,7.70
2017-09-25T01:58:47.098Z,7.80
2017-09-25T02:01:15.345Z,7.70
2017-09-25T02:03:43.577Z,7.60
2017-09-25T02:06:11.832Z,7.50
2017-09-25T02:08:40.065Z,7.40
2017-09-25T02:11:09.062Z,7.30
2017-09-25T02:13:37.329Z,7.30
2017-09-25T02:16:05.614Z,7.40
2017-09-25T02:18:33.841Z,7.40
2017-09-25T02:21:02.098Z,7.40
2017-09-25T02:23:31.085Z,7.30
2017-09-25T02:25:59.309Z,7.30
2017-09-25T02:28:27.561Z,7.50
2017-09-25T02:30:55.819Z,7.50
2017-09-25T02:33:24.042Z,7.40
2017-09-25T02:35:52.316Z,7.30
2017-09-25T02:38:20.546Z,7.20
2017-09-25T02:40:48.773Z,7.20
2017-09-25T02:43:17.206Z,7.20
2017-09-25T02:45:45.430Z,7.10
2017-09-25T02:48:13.667Z,7.00
2017-09-25T02:50:42.906Z,6.90
2017-09-25T02:53:11.129Z,6.90
2017-09-25T02:55:39.361Z,6.90
2017-09-25T02:58:07.705Z,6.80
2017-09-25T03:00:35.929Z,6.80
2017-09-25T03:03:04.153Z,6.80
2017-09-25T03:05:33.174Z,6.70
2017-09-25T03:08:01.402Z,6.70
2017-09-25T03:10:29.634Z,6.70
2017-09-25T03:12:58.242Z,6.80
2017-09-25T03:15:26.464Z,6.90
2017-09-25T03:17:56.208Z,6.80
2017-09-25T03:20:24.451Z,6.80
2017-09-25T03:22:52.699Z,6.70
2017-09-25T03:25:21.685Z,6.70
2017-09-25T03:27:50.101Z,6.60
2017-09-25T03:30:18.326Z,6.60
2017-09-25T03:32:46.553Z,6.60
2017-09-25T03:35:14.862Z,6.60
2017-09-25T03:37:43.090Z,6.60
2017-09-25T03:40:12.085Z,6.50
2017-09-25T03:42:40.477Z,6.40
2017-09-25T03:45:08.705Z,6.50
2017-09-25T03:47:36.929Z,6.50
2017-09-25T03:50:05.362Z,6.50
2017-09-25T03:52:33.588Z,6.50
2017-09-25T03:55:01.809Z,6.50
2017-09-25T03:57:30.252Z,6.50
2017-09-25T03:59:58.482Z,6.60
2017-09-25T04:02:26.713Z,6.80
2017-09-25T04:04:55.793Z,6.90
2017-09-25T04:07:23.993Z,6.80
2017-09-25T04:09:52.232Z,6.80
2017-09-25T04:12:20.745Z,6.80
2017-09-25T04:14:48.969Z,6.80
2017-09-25T04:17:17.201Z,6.70
2017-09-25T04:19:45.662Z,6.80
2017-09-25T04:22:13.903Z,6.80
2017-09-25T04:24:42.895Z,6.80
2017-09-25T04:27:11.161Z,6.80
2017-09-25T04:29:39.394Z,6.90
2017-09-25T04:32:08.385Z,6.80
2017-09-25T04:34:36.789Z,6.70
2017-09-25T04:37:05.010Z,6.90
2017-09-25T04:39:33.237Z,7.10
2017-09-25T04:42:01.666Z,7.70
2017-09-25T04:44:29.893Z,8.00
2017-09-25T04:46:58.142Z,7.90
2017-09-25T04:49:27.152Z,7.50
2017-09-25T04:51:55.374Z,7.40
2017-09-25T04:54:24.366Z,7.10
2017-09-25T04:56:52.627Z,7.10
2017-09-25T04:59:20.857Z,6.90
2017-09-25T05:01:49.123Z,6.90
2017-09-25T05:04:17.381Z,6.80
2017-09-25T05:06:45.601Z,6.90
2017-09-25T05:09:13.830Z,7.00
2017-09-25T05:11:42.233Z,6.90
2017-09-25T05:14:10.460Z,6.80
2017-09-25T05:16:38.684Z,6.70
2017-09-25T05:19:06.950Z,6.60
2017-09-25T05:21:35.178Z,6.60
2017-09-25T05:24:03.581Z,6.60
2017-09-25T05:26:33.847Z,6.60
2017-09-25T05:29:02.714Z,6.50
2017-09-25T05:31:30.944Z,6.60
2017-09-25T05:33:59.193Z,6.60
2017-09-25T05:36:28.189Z,6.50
2017-09-25T05:38:56.412Z,6.40
2017-09-25T05:41:25.151Z,6.50
2017-09-25T05:43:53.373Z,6.40
2017-09-25T05:46:21.594Z,6.50
2017-09-25T05:48:49.861Z,6.40
2017-09-25T05:51:18.093Z,6.40
2017-09-25T05:53:46.321Z,6.40
2017-09-25T05:56:14.588Z,6.50
2017-09-25T05:58:42.816Z,6.50
2017-09-25T06:01:11.814Z,6.60
2017-09-25T06:03:40.068Z,6.50
2017-09-25T06:06:08.292Z,6.60
2017-09-25T06:08:36.528Z,6.80
2017-09-25T06:11:04.806Z,6.80
2017-09-25T06:13:33.034Z,6.80
2017-09-25T06:16:01.265Z,6.90
2017-09-25T06:18:30.300Z,7.30
2017-09-25T06:20:58.529Z,7.30
2017-09-25T06:23:26.762Z,7.50
2017-09-25T06:25:55.816Z,7.60
2017-09-25T06:28:24.038Z,7.50
2017-09-25T06:30:52.270Z,7.60
2017-09-25T06:33:20.673Z,7.70
2017-09-25T06:35:48.909Z,7.70
2017-09-25T06:38:17.138Z,7.70
2017-09-25T06:40:46.182Z,7.90
2017-09-25T06:43:14.434Z,7.90
2017-09-25T06:45:42.666Z,7.90
2017-09-25T06:48:10.949Z,7.90
2017-09-25T06:50:39.173Z,7.90
2017-09-25T06:53:08.166Z,8.00
2017-09-25T06:55:36.426Z,7.90
2017-09-25T06:58:04.657Z,8.00
2017-09-25T07:00:33.649Z,8.10
2017-09-25T07:03:02.685Z,9.80
2017-09-25T07:05:30.914Z,8.20
2017-09-25T07:07:59.151Z,8.30
2017-09-25T07:10:27.410Z,8.40
2017-09-25T07:12:55.654Z,8.50
2017-09-25T07:15:24.649Z,8.80
2017-09-25T07:17:52.937Z,8.70
2017-09-25T07:20:21.183Z,8.80
2017-09-25T07:22:49.404Z,8.90
2017-09-25T07:25:17.683Z,9.10
2017-09-25T07:27:46.668Z,9.20
2017-09-25T07:30:14.896Z,9.20
2017-09-25T07:32:43.160Z,9.30
2017-09-25T07:35:11.398Z,9.50
2017-09-25T07:37:39.633Z,9.60
2017-09-25T07:40:08.309Z,9.70
2017-09-25T07:42:36.549Z,9.80
2017-09-25T07:45:04.800Z,9.90
2017-09-25T07:47:33.849Z,10.00
2017-09-25T07:50:02.090Z,9.90
2017-09-25T07:52:30.333Z,10.10
2017-09-25T07:54:58.585Z,10.10
2017-09-25T07:57:26.826Z,10.10
2017-09-25T07:59:55.078Z,10.20
2017-09-25T08:02:24.119Z,10.30
2017-09-25T08:04:52.365Z,10.20
2017-09-25T08:07:20.606Z,10.40
2017-09-25T08:09:48.905Z,10.40
2017-09-25T08:12:17.146Z,10.50
2017-09-25T08:14:45.386Z,10.60
2017-09-25T08:17:13.686Z,10.80
2017-09-25T08:19:41.934Z,11.00
2017-09-25T08:22:10.349Z,11.20
2017-09-25T08:24:39.066Z,11.30
2017-09-25T08:27:07.304Z,11.30
2017-09-25T08:29:35.541Z,11.20
2017-09-25T08:32:03.830Z,11.40
2017-09-25T08:34:32.069Z,11.30
2017-09-25T08:37:00.321Z,11.30
2017-09-25T08:39:28.617Z,11.40
2017-09-25T08:41:56.861Z,11.60
2017-09-25T08:44:25.167Z,11.80
2017-09-25T08:46:53.546Z,12.00
2017-09-25T08:49:21.808Z,12.10
2017-09-25T08:51:50.837Z,12.20
2017-09-25T08:54:19.239Z,12.20
2017-09-25T08:56:47.474Z,12.40
2017-09-25T08:59:15.706Z,12.40
2017-09-25T09:01:43.986Z,12.70
2017-09-25T09:04:12.218Z,12.80
2017-09-25T09:06:40.457Z,12.90
2017-09-25T09:09:09.654Z,13.30
2017-09-25T09:11:39.313Z,13.60
2017-09-25T09:14:07.558Z,13.50
2017-09-25T09:16:35.822Z,13.80
2017-09-25T09:19:04.062Z,14.00
2017-09-25T09:21:32.305Z,14.20
2017-09-25T09:24:00.570Z,14.40
2017-09-25T09:26:28.981Z,14.50
2017-09-25T09:28:57.218Z,14.40
2017-09-25T09:31:25.505Z,14.50
2017-09-25T09:33:53.749Z,14.50
2017-09-25T09:36:21.985Z,14.60
2017-09-25T09:38:50.282Z,14.70
2017-09-25T09:41:18.521Z,14.60
2017-09-25T09:43:46.753Z,14.90
2017-09-25T09:46:15.054Z,15.20
2017-09-25T09:48:43.322Z,15.20
2017-09-25T09:51:11.554Z,15.10
2017-09-25T09:53:40.241Z,15.00
2017-09-25T09:56:08.490Z,15.10
2017-09-25T09:58:36.726Z,15.10
2017-09-25T10:01:05.005Z,15.00
2017-09-25T10:03:33.246Z,14.90
2017-09-25T10:06:02.242Z,15.20
2017-09-25T10:08:30.557Z,15.10
2017-09-25T10:10:58.802Z,15.20
2017-09-25T10:13:27.030Z,15.30
2017-09-25T10:15:55.306Z,15.40
2017-09-25T10:18:24.200Z,15.70
2017-09-25T10:20:52.466Z,16.10
2017-09-25T10:23:20.764Z,16.50
2017-09-25T10:25:49.773Z,16.70
2017-09-25T10:28:18.009Z,16.70
2017-09-25T10:30:46.285Z,16.80
2017-09-25T10:33:14.612Z,16.60
2017-09-25T10:35:43.614Z,17.00
2017-09-25T10:40:46.606Z,17.20
2017-09-25T10:43:15.272Z,17.50
2017-09-25T10:45:43.510Z,17.70
2017-09-25T10:48:11.749Z,17.80
2017-09-25T10:50:40.802Z,17.80
2017-09-25T10:53:09.034Z,17.80
2017-09-25T10:55:37.277Z,17.80
2017-09-25T10:58:05.542Z,17.70
2017-09-25T11:00:33.777Z,17.90
2017-09-25T11:03:02.781Z,18.00
2017-09-25T11:05:31.171Z,18.00
2017-09-25T11:07:59.409Z,17.90
2017-09-25T11:10:27.660Z,17.70
2017-09-25T11:12:55.926Z,17.80
2017-09-25T11:15:24.177Z,17.70
2017-09-25T11:17:52.413Z,17.70
2017-09-25T11:20:21.455Z,17.70
2017-09-25T11:22:49.712Z,17.70
2017-09-25T11:25:17.951Z,17.50
2017-09-25T11:27:46.218Z,17.30
2017-09-25T11:30:14.449Z,17.00
2017-09-25T11:32:42.873Z,17.10
2017-09-25T11:35:11.148Z,17.40
2017-09-25T11:37:39.390Z,17.50
2017-09-25T11:40:07.730Z,17.90
2017-09-25T11:42:36.017Z,18.40
2017-09-25T11:45:04.253Z,18.70
2017-09-25T11:47:32.614Z,19.20
2017-09-25T11:50:00.885Z,19.40
2017-09-25T11:52:29.142Z,19.60
2017-09-25T11:54:57.392Z,19.90
2017-09-25T11:57:26.091Z,20.30
2017-09-25T11:59:54.551Z,20.30
2017-09-25T12:02:22.805Z,20.40
2017-09-25T12:04:51.169Z,20.90
2017-09-25T12:07:19.456Z,21.20
2017-09-25T12:09:48.517Z,20.80
2017-09-25T12:12:16.789Z,20.70
2017-09-25T12:14:45.025Z,21.00
2017-09-25T12:17:13.266Z,20.80
2017-09-25T12:19:41.761Z,20.60
2017-09-25T12:22:09.997Z,20.50
2017-09-25T12:24:38.245Z,20.20
2017-09-25T12:27:06.649Z,20.00
2017-09-25T12:29:34.895Z,19.80
2017-09-25T12:32:03.137Z,19.70
2017-09-25T12:34:31.408Z,19.60
2017-09-25T12:36:59.661Z,19.50
2017-09-25T12:39:27.918Z,19.30
2017-09-25T12:41:56.233Z,19.30
2017-09-25T12:44:24.514Z,19.10
2017-09-25T12:46:53.518Z,18.60
2017-09-25T12:49:21.833Z,18.60
2017-09-25T12:51:50.088Z,18.50
2017-09-25T12:54:18.342Z,18.40
2017-09-25T12:56:46.645Z,18.40
2017-09-25T12:59:15.647Z,18.30
2017-09-25T13:01:43.886Z,18.20
2017-09-25T13:04:12.920Z,18.20
2017-09-25T13:06:41.157Z,18.10
2017-09-25T13:09:09.406Z,18.20
2017-09-25T13:11:37.802Z,18.10
2017-09-25T13:14:06.053Z,18.10
2017-09-25T13:16:34.290Z,18.00
2017-09-25T13:19:02.559Z,18.10
2017-09-25T13:21:30.802Z,18.10
2017-09-25T13:23:59.047Z,18.00
2017-09-25T13:26:28.073Z,18.00
2017-09-25T13:28:56.309Z,17.90
2017-09-25T13:31:24.570Z,18.00
2017-09-25T13:33:52.846Z,18.00
2017-09-25T13:36:21.238Z,18.00
2017-09-25T13:38:49.483Z,18.20
2017-09-25T13:41:17.752Z,18.20
2017-09-25T13:43:46.000Z,18.30
2017-09-25T13:46:14.233Z,18.60
2017-09-25T13:48:42.540Z,18.90
2017-09-25T13:51:10.785Z,19.30
2017-09-25T13:53:39.044Z,19.60
2017-09-25T13:56:07.319Z,20.10
2017-09-25T14:03:42.806Z,19.70
2017-09-25T14:06:11.937Z,20.20
2017-09-25T14:08:40.174Z,20.10
2017-09-25T14:11:08.418Z,20.70
2017-09-25T14:13:36.710Z,21.00
2017-09-25T14:16:04.959Z,20.90
2017-09-25T14:18:33.202Z,20.60
2017-09-25T14:21:01.601Z,20.30
2017-09-25T14:23:29.854Z,20.10
2017-09-25T14:25:59.749Z,20.50
2017-09-25T14:28:28.229Z,20.50
2017-09-25T14:30:56.488Z,21.10
2017-09-25T14:33:24.725Z,21.30
2017-09-25T14:35:53.048Z,21.40
2017-09-25T14:38:22.058Z,21.30
2017-09-25T14:40:50.353Z,21.30
2017-09-25T14:43:18.651Z,21.10
2017-09-25T14:45:47.653Z,21.00
2017-09-25T14:48:15.893Z,20.90
2017-09-25T14:50:45.133Z,21.10
2017-09-25T14:53:13.378Z,21.00
2017-09-25T14:55:41.626Z,20.90
2017-09-25T14:58:09.910Z,21.00
2017-09-25T15:00:38.149Z,21.20
2017-09-25T15:03:06.405Z,21.30
2017-09-25T15:05:34.802Z,21.50
2017-09-25T15:08:03.041Z,21.40
2017-09-25T15:10:31.294Z,21.40
2017-09-25T15:12:59.573Z,21.20
2017-09-25T15:15:27.800Z,21.20
2017-09-25T15:17:56.041Z,21.20
2017-09-25T15:20:25.501Z,21.50
2017-09-25T15:22:53.742Z,21.40
2017-09-25T15:25:21.988Z,21.60
2017-09-25T15:27:50.273Z,21.30
2017-09-25T15:30:18.513Z,21.50
2017-09-25T15:32:46.749Z,21.30
2017-09-25T15:35:15.008Z,20.70
2017-09-25T15:37:44.017Z,20.30
2017-09-25T15:40:12.267Z,20.30
2017-09-25T15:42:40.531Z,20.60
2017-09-25T15:45:08.825Z,20.80
2017-09-25T15:47:37.056Z,21.20
2017-09-25T15:50:05.445Z,21.10
2017-09-25T15:52:33.697Z,20.80
2017-09-25T15:55:01.941Z,20.50
2017-09-25T15:57:30.225Z,20.30
2017-09-25T16:02:33.068Z,19.70
2017-09-25T16:05:01.307Z,19.30
2017-09-25T16:07:29.624Z,19.10
2017-09-25T16:09:57.917Z,19.10
2017-09-25T16:12:26.147Z,19.00
2017-09-25T16:14:54.399Z,18.90
2017-09-25T16:17:22.687Z,18.80
2017-09-25T16:19:50.936Z,18.60
2017-09-25T16:22:19.197Z,18.60
2017-09-25T16:24:47.490Z,18.50
2017-09-25T16:27:15.909Z,18.50
2017-09-25T16:29:44.149Z,18.60
2017-09-25T16:32:12.517Z,18.70
2017-09-25T16:34:40.782Z,18.70
2017-09-25T16:37:09.029Z,18.80
2017-09-25T16:39:37.305Z,18.70
2017-09-25T16:42:05.541Z,18.70
2017-09-25T16:44:33.781Z,18.70
2017-09-25T16:47:02.920Z,18.10
2017-09-25T16:49:31.155Z,18.00
2017-09-25T16:51:59.852Z,17.90
2017-09-25T16:54:28.237Z,17.70
2017-09-25T16:56:56.468Z,17.40
2017-09-25T16:59:24.716Z,17.00
2017-09-25T17:01:53.101Z,16.80
2017-09-25T17:10:30.399Z,16.20
2017-09-25T17:12:59.486Z,16.00
2017-09-25T17:15:28.528Z,15.90
2017-09-25T17:17:56.920Z,15.80
2017-09-25T17:20:29.146Z,15.70
2017-09-25T17:22:57.433Z,15.70
2017-09-25T17:25:26.538Z,15.60
2017-09-25T17:27:55.675Z,15.40
2017-09-25T17:30:23.954Z,15.30
2017-09-25T17:32:52.244Z,15.30
2017-09-25T17:35:20.524Z,15.10
2017-09-25T17:37:49.036Z,15.00
2017-09-25T17:40:18.116Z,14.80
2017-09-25T17:42:46.402Z,14.80
2017-09-25T17:45:15.444Z,14.70
2017-09-25T17:47:43.712Z,14.70
2017-09-25T17:50:12.143Z,14.70
2017-09-25T17:52:40.428Z,14.60
2017-09-25T17:55:08.688Z,14.60
2017-09-25T17:57:36.984Z,14.60
2017-09-25T18:00:06.029Z,14.60
2017-09-25T18:02:34.344Z,14.50
2017-09-25T18:05:02.688Z,14.40
2017-09-25T18:07:32.067Z,14.10
2017-09-25T18:10:00.427Z,14.00
2017-09-25T18:12:28.696Z,14.10
2017-09-25T18:14:57.789Z,14.20
2017-09-25T18:17:26.072Z,14.20
2017-09-25T18:19:54.349Z,14.10
2017-09-25T18:22:22.644Z,13.90
2017-09-25T18:24:53.125Z,13.80
2017-09-25T18:27:22.805Z,13.70
2017-09-25T18:29:51.072Z,13.50
2017-09-25T18:32:19.835Z,13.50
2017-09-25T18:34:48.816Z,13.30
2017-09-25T18:37:17.415Z,13.20
2017-09-25T18:39:46.136Z,13.10
2017-09-25T18:42:14.412Z,13.10
2017-09-25T18:44:43.165Z,13.00
2017-09-25T18:47:11.707Z,13.10
2017-09-25T18:49:41.142Z,13.30
2017-09-25T18:52:11.222Z,13.20
2017-09-25T18:54:39.724Z,13.20
2017-09-25T18:57:08.024Z,13.00
2017-09-25T18:59:37.674Z,12.90
2017-09-25T19:02:06.152Z,11.10
2017-09-25T19:04:34.483Z,12.60
2017-09-25T19:07:05.193Z,12.50
2017-09-25T19:09:34.241Z,12.50
2017-09-25T19:12:02.622Z,12.40
2017-09-25T19:14:35.026Z,12.30
2017-09-25T19:17:04.650Z,12.30
2017-09-25T19:19:36.260Z,12.20
2017-09-25T19:22:04.640Z,12.30
2017-09-25T19:24:32.923Z,12.10
2017-09-25T19:27:01.213Z,12.10
2017-09-25T19:29:29.502Z,12.00
2017-09-25T19:31:57.824Z,12.00
2017-09-25T19:34:26.883Z,12.00
2017-09-25T19:36:55.168Z,11.90
2017-09-25T19:39:23.703Z,11.90
2017-09-25T19:41:52.017Z,12.00
2017-09-25T19:44:20.424Z,11.90
2017-09-25T19:46:49.151Z,11.90
2017-09-25T19:49:21.543Z,11.90
2017-09-25T19:51:50.262Z,12.00
2017-09-25T19:54:20.636Z,11.80
2017-09-25T19:56:53.717Z,11.70
2017-09-25T19:59:22.140Z,11.70
2017-09-25T20:01:50.436Z,11.70
2017-09-25T20:04:18.717Z,11.60
2017-09-25T20:06:47.060Z,11.50
2017-09-25T20:09:15.357Z,11.50
2017-09-25T20:11:44.438Z,11.40
2017-09-25T20:14:13.480Z,11.40
2017-09-25T20:16:43.436Z,11.30
2017-09-25T20:19:11.726Z,11.50
2017-09-25T20:21:40.059Z,11.60
2017-09-25T20:24:08.343Z,11.60
2017-09-25T20:26:36.624Z,11.60
2017-09-25T20:29:04.926Z,11.50
2017-09-25T20:31:33.206Z,11.50
2017-09-25T20:34:01.550Z,11.40
2017-09-25T20:36:29.836Z,11.30
2017-09-25T20:38:58.119Z,11.30
2017-09-25T20:41:46.096Z,11.20
2017-09-25T20:44:14.508Z,11.20
2017-09-25T20:46:42.792Z,11.20
2017-09-25T20:49:11.064Z,11.10
2017-09-25T20:51:40.132Z,11.30
2017-09-25T20:54:08.405Z,11.20
2017-09-25T20:56:36.692Z,11.20
2017-09-25T20:59:04.988Z,11.10
2017-09-25T21:01:33.308Z,11.10
2017-09-25T21:04:01.579Z,11.00
2017-09-25T21:06:29.856Z,11.00
2017-09-25T21:08:58.150Z,11.00
2017-09-25T21:11:26.424Z,10.90
2017-09-25T21:13:54.720Z,11.00
2017-09-25T21:16:23.020Z,10.90
2017-09-25T21:18:51.338Z,10.90
2017-09-25T21:21:20.375Z,11.00
2017-09-25T21:23:48.724Z,11.00
2017-09-25T21:26:20.817Z,11.00
2017-09-25T21:28:50.200Z,10.80
2017-09-25T21:31:19.240Z,10.70
2017-09-25T21:33:47.537Z,10.70
2017-09-25T21:36:16.613Z,10.60
2017-09-25T21:38:44.884Z,10.50
2017-09-25T21:41:13.944Z,10.50
2017-09-25T21:43:42.225Z,10.40
2017-09-25T21:46:11.576Z,10.60
2017-09-25T21:48:39.857Z,10.60
2017-09-25T21:51:08.120Z,10.60
2017-09-25T21:53:36.426Z,10.60
2017-09-25T21:56:04.762Z,10.50
2017-09-25T21:58:33.046Z,10.30
2017-09-25T22:01:01.321Z,10.30
2017-09-25T22:03:29.652Z,10.30
2017-09-25T22:05:57.924Z,10.30
2017-09-25T22:08:26.204Z,10.30
2017-09-25T22:10:54.496Z,10.20
2017-09-25T22:13:22.773Z,10.30
2017-09-25T22:15:51.924Z,10.20
2017-09-25T22:18:20.246Z,10.20
2017-09-25T22:20:48.552Z,10.20
2017-09-25T22:23:16.829Z,10.30
2017-09-25T22:25:45.570Z,10.30
2017-09-25T22:28:13.863Z,10.30
2017-09-25T22:30:42.136Z,10.40
2017-09-25T22:33:10.437Z,10.40
2017-09-25T22:35:38.704Z,10.40
2017-09-25T22:38:07.042Z,10.40
2017-09-25T22:40:36.096Z,10.50
2017-09-25T22:43:07.104Z,10.40
2017-09-25T22:45:35.408Z,10.50
2017-09-25T22:48:04.463Z,10.40
2017-09-25T22:50:32.800Z,10.40
2017-09-25T22:53:01.072Z,10.50
2017-09-25T22:55:29.360Z,10.70
2017-09-25T22:57:58.395Z,10.70
2017-09-25T23:00:26.724Z,10.60
2017-09-25T23:02:55.004Z,10.70
2017-09-25T23:05:28.888Z,10.70
2017-09-25T23:07:57.175Z,10.70
2017-09-25T23:10:25.444Z,10.70
2017-09-25T23:12:53.742Z,10.70
2017-09-25T23:15:22.784Z,10.70
2017-09-25T23:17:51.794Z,10.60
2017-09-25T23:20:20.064Z,10.60
2017-09-25T23:22:48.389Z,10.60
2017-09-25T23:25:16.664Z,10.70
2017-09-25T23:27:44.943Z,10.70
2017-09-25T23:30:18.789Z,10.60
2017-09-25T23:32:47.068Z,10.60
2017-09-25T23:35:15.356Z,10.60
2017-09-25T23:37:44.392Z,10.60
2017-09-25T23:40:12.697Z,10.60
2017-09-25T23:42:41.732Z,10.70
2017-09-25T23:45:10.008Z,10.60
2017-09-25T23:47:38.292Z,10.70
2017-09-25T23:50:07.336Z,10.80
2017-09-25T23:52:35.624Z,10.70
2017-09-25T23:55:03.892Z,10.80
2017-09-25T23:57:33.076Z,10.80
